Blodgett Mills, New York
Current Conditions -  °F | °C
As of 12:35 PM on Friday 24 Oct 2014 (Local Time) from KN03 Reporting Station
Clear Clear  
Wind Chill: 13°   Ceiling: Unl
Heat Index: 13°   Visibility: 10mi
Dew Point:   Wind: 12mph
Humidity: 63%   Direction: 330°NNW
Pressure: 29.93"   Gusts: 18mph
Location:  42.57°N, 76.13°W
Report Text: KN03 241635Z AUTO 33010G16KT 10SM CLR 13/06 A2993 RMK AO2
Loading
Personal Weather Stations






























Interactive Weather Map
Tropical Storm Tracking
New forecast layout! Learn more

10-Day Weather Forecast

Advertisements
Track Severe Weather on mobile